Time;durP1;ratioP1;P1;durP2;ratioP2;P2;SDS_P1;SDS_P2;PMS_P1;PMS_P2;Temp;Humidity;BMP_temperature;BMP_pressure;BME280_temperature;BME280_humidity;BME280_pressure;Samples;Min_cycle;Max_cycle;Signal;HPM_P1;HPM_P2
2022/03/11 00:01:54;;;;;;;;;;;;;;;6.81;51.95;101860.22;5005878;28;20381;-71
2022/03/11 00:04:20;;;;;;;;;;;;;;;6.75;52.45;101855.09;5006800;28;20277;-72
2022/03/11 00:06:45;;;;;;;;;;;;;;;6.69;52.60;101856.94;5006324;28;19929;-72
2022/03/11 00:09:10;;;;;;;;;;;;;;;6.62;53.17;101864.81;5002773;28;20515;-72
2022/03/11 00:11:36;;;;;;;;;;;;;;;6.54;53.06;101858.84;5003172;28;19929;-68
2022/03/11 00:14:01;;;;;;;;;;;;;;;6.61;52.39;101850.06;5000812;28;19925;-70
2022/03/11 00:16:27;;;;;;;;;;;;;;;6.54;52.96;101851.03;4985078;28;19933;-70
2022/03/11 00:18:52;;;;;;;;;;;;;;;6.49;53.37;101845.00;5005913;28;19929;-69
2022/03/11 00:21:17;;;;;;;;;;;;;;;6.46;53.73;101852.88;5003309;28;19940;-70
2022/03/11 00:23:43;;;;;;;;;;;;;;;6.47;54.68;101847.63;5003474;28;19926;-69
2022/03/11 00:26:09;;;;;;;;;;;;;;;6.39;54.65;101848.63;5003953;28;20277;-69
2022/03/11 00:28:35;;;;;;;;;;;;;;;6.34;54.83;101846.94;5002210;28;19961;-69
2022/03/11 00:31:00;;;;;;;;;;;;;;;6.25;56.49;101839.22;5003755;28;20407;-69
2022/03/11 00:33:26;;;;;;;;;;;;;;;6.27;56.25;101844.41;5003035;28;19932;-69
2022/03/11 00:35:51;;;;;;;;;;;;;;;6.17;56.89;101843.69;5002832;28;20720;-69
2022/03/11 00:38:16;;;;;;;;;;;;;;;6.07;56.99;101844.66;5003060;28;19933;-69
2022/03/11 00:40:42;;;;;;;;;;;;;;;6.04;57.60;101840.34;5002853;28;19973;-69
2022/03/11 00:43:07;;;;;;;;;;;;;;;6.01;56.71;101843.84;5003630;28;19925;-68
2022/03/11 00:45:32;;;;;;;;;;;;;;;6.01;57.23;101845.59;4982316;28;19941;-72
2022/03/11 00:47:58;;;;;;;;;;;;;;;6.05;56.36;101836.84;5004569;28;19976;-69
2022/03/11 00:50:24;;;;;;;;;;;;;;;6.02;55.87;101834.25;5002148;28;19960;-68
2022/03/11 00:52:49;;;;;;;;;;;;;;;6.00;55.27;101834.28;5004234;28;20012;-70
2022/03/11 00:55:15;;;;;;;;;;;;;;;6.02;55.61;101837.75;5004170;28;20447;-70
2022/03/11 00:57:40;;;;;;;;;;;;;;;6.06;55.01;101822.06;5004140;28;19933;-70
2022/03/11 01:00:06;;;;;;;;;;;;;;;6.05;55.28;101825.56;5000801;28;19933;-70
2022/03/11 01:02:33;;;;;;;;;;;;;;;6.16;53.56;101813.25;5004653;28;19921;-70
2022/03/11 01:04:59;;;;;;;;;;;;;;;6.16;53.83;101806.28;5005381;28;19922;-70
2022/03/11 01:07:24;;;;;;;;;;;;;;;6.22;53.83;101810.56;5002923;28;19929;-70
2022/03/11 01:09:49;;;;;;;;;;;;;;;6.15;54.50;101808.91;5003853;28;19988;-71
2022/03/11 01:12:15;;;;;;;;;;;;;;;6.14;53.98;101796.75;4983151;28;19925;-70
2022/03/11 01:14:40;;;;;;;;;;;;;;;6.13;54.06;101803.69;5001796;28;20486;-71
2022/03/11 01:17:05;;;;;;;;;;;;;;;6.09;54.70;101804.63;5000159;28;19931;-70
2022/03/11 01:19:30;;;;;;;;;;;;;;;6.13;54.21;101801.09;5001103;28;19929;-71
2022/03/11 01:21:57;;;;;;;;;;;;;;;6.11;54.02;101796.78;5017296;28;20409;-70
2022/03/11 01:24:22;;;;;;;;;;;;;;;6.15;54.73;101785.44;5010470;28;20442;-70
2022/03/11 01:26:47;;;;;;;;;;;;;;;6.09;54.62;101783.75;5003162;28;19917;-70
2022/03/11 01:29:13;;;;;;;;;;;;;;;6.06;55.14;101788.16;5005382;28;19924;-71
2022/03/11 01:31:38;;;;;;;;;;;;;;;6.03;54.77;101784.72;5004013;28;20016;-69
2022/03/11 01:34:03;;;;;;;;;;;;;;;6.05;55.09;101779.47;5008171;28;19945;-70
2022/03/11 01:36:29;;;;;;;;;;;;;;;6.01;55.11;101786.47;5009518;28;19937;-71
2022/03/11 01:38:56;;;;;;;;;;;;;;;6.03;54.50;101773.38;5008677;28;19925;-71
2022/03/11 01:41:21;;;;;;;;;;;;;;;5.94;55.58;101774.34;5008974;28;20060;-71
2022/03/11 01:44:02;;;;;;;;;;;;;;;5.90;55.14;101775.25;5007993;28;20285;-72
2022/03/11 01:46:29;;;;;;;;;;;;;;;5.90;55.39;101767.44;5007738;28;19925;-69
2022/03/11 01:48:54;;;;;;;;;;;;;;;5.93;54.48;101762.19;5010472;28;19917;-70
2022/03/11 01:51:20;;;;;;;;;;;;;;;5.90;54.65;101759.63;5008493;28;19925;-70
2022/03/11 01:53:45;;;;;;;;;;;;;;;5.88;54.65;101763.97;5008693;28;19925;-70
2022/03/11 01:56:11;;;;;;;;;;;;;;;5.86;54.87;101769.22;5008734;28;20292;-72
2022/03/11 01:58:36;;;;;;;;;;;;;;;5.80;54.90;101766.69;5009123;28;19918;-72
2022/03/11 02:01:02;;;;;;;;;;;;;;;5.77;55.80;101761.53;5008996;28;19926;-72
2022/03/11 02:03:28;;;;;;;;;;;;;;;5.68;56.28;101757.28;5009744;28;20336;-73
2022/03/11 02:05:53;;;;;;;;;;;;;;;5.66;57.09;101753.81;5009603;28;20003;-71
2022/03/11 02:08:19;;;;;;;;;;;;;;;5.57;57.80;101746.09;5005817;28;19991;-69
2022/03/11 02:10:44;;;;;;;;;;;;;;;5.50;58.01;101747.06;5008645;28;20454;-68
2022/03/11 02:13:09;;;;;;;;;;;;;;;5.37;58.87;101741.97;5007518;28;19972;-69
2022/03/11 02:15:34;;;;;;;;;;;;;;;5.39;58.23;101741.94;5008765;28;19926;-68
2022/03/11 02:18:00;;;;;;;;;;;;;;;5.34;58.23;101736.78;5008396;28;19921;-69
2022/03/11 02:20:25;;;;;;;;;;;;;;;5.22;58.44;101735.19;5006889;28;19932;-69
2022/03/11 02:22:51;;;;;;;;;;;;;;;5.26;57.88;101729.03;5007328;28;19918;-69
2022/03/11 02:25:17;;;;;;;;;;;;;;;5.21;57.74;101723.03;5008496;28;19918;-70
2022/03/11 02:27:42;;;;;;;;;;;;;;;5.20;58.34;101726.50;5007848;28;19921;-68
2022/03/11 02:30:12;;;;;;;;;;;;;;;5.13;58.14;101718.75;5008053;28;20000;-70
2022/03/11 02:32:38;;;;;;;;;;;;;;;5.14;57.56;101710.94;5005450;28;20007;-72
2022/03/11 02:35:03;;;;;;;;;;;;;;;5.10;58.24;101719.66;5008659;28;19995;-70
2022/03/11 02:37:28;;;;;;;;;;;;;;;5.08;58.75;101722.25;5007196;28;20014;-69
2022/03/11 02:39:55;;;;;;;;;;;;;;;5.06;58.37;101713.63;5008871;28;20396;-71
2022/03/11 02:42:21;;;;;;;;;;;;;;;5.06;58.71;101716.22;5007553;28;19932;-70
2022/03/11 02:44:46;;;;;;;;;;;;;;;4.99;58.92;101698.91;5006800;28;20312;-70
2022/03/11 02:47:12;;;;;;;;;;;;;;;4.98;59.03;101714.56;4993910;28;19929;-72
2022/03/11 02:49:37;;;;;;;;;;;;;;;4.96;59.03;101706.78;5007342;28;19925;-70
2022/03/11 02:52:02;;;;;;;;;;;;;;;4.96;58.57;101704.19;5014342;28;19928;-72
2022/03/11 02:54:28;;;;;;;;;;;;;;;4.92;58.83;101700.72;4998238;28;19940;-71
2022/03/11 02:56:53;;;;;;;;;;;;;;;4.92;58.71;101695.50;5007391;28;19944;-70
2022/03/11 02:59:18;;;;;;;;;;;;;;;4.91;58.67;101693.78;5007814;28;19917;-71
2022/03/11 03:01:44;;;;;;;;;;;;;;;4.91;58.98;101696.38;4989545;28;19957;-70
2022/03/11 03:04:11;;;;;;;;;;;;;;;4.89;58.59;101692.06;5007259;28;19922;-71
2022/03/11 03:06:36;;;;;;;;;;;;;;;4.90;58.39;101691.19;5007116;28;19968;-71
2022/03/11 03:09:02;;;;;;;;;;;;;;;4.90;58.48;101692.09;5006230;28;20333;-71
2022/03/11 03:11:27;;;;;;;;;;;;;;;4.90;59.05;101696.41;5009063;28;19932;-70
2022/03/11 03:13:52;;;;;;;;;;;;;;;4.82;59.20;101683.44;5004777;28;19928;-71
2022/03/11 03:16:18;;;;;;;;;;;;;;;4.79;59.37;101689.56;5007493;28;19929;-70
2022/03/11 03:18:43;;;;;;;;;;;;;;;4.75;59.70;101685.25;5008077;28;19957;-70
2022/03/11 03:21:08;;;;;;;;;;;;;;;4.77;59.47;101680.91;5007635;28;19938;-70
2022/03/11 03:23:33;;;;;;;;;;;;;;;4.76;59.47;101676.56;4989415;28;20955;-72
2022/03/11 03:26:00;;;;;;;;;;;;;;;4.77;59.71;101683.50;5007680;28;19921;-72
2022/03/11 03:28:26;;;;;;;;;;;;;;;4.71;60.17;101682.69;5007550;28;20333;-73
2022/03/11 03:30:51;;;;;;;;;;;;;;;4.66;60.50;101676.69;5007012;28;20052;-72
2022/03/11 03:33:16;;;;;;;;;;;;;;;4.66;60.27;101682.72;5006850;28;20423;-73
2022/03/11 03:35:42;;;;;;;;;;;;;;;4.65;60.26;101678.41;5007945;28;19986;-72
2022/03/11 03:38:07;;;;;;;;;;;;;;;4.60;60.51;101672.38;5007426;28;19921;-72
2022/03/11 03:40:32;;;;;;;;;;;;;;;4.55;60.99;101675.03;5007581;28;19968;-75
2022/03/11 03:42:57;;;;;;;;;;;;;;;4.58;60.54;101681.94;5007584;28;19925;-73
2022/03/11 03:45:23;;;;;;;;;;;;;;;4.58;60.24;101674.97;5007325;28;19928;-72
2022/03/11 03:47:48;;;;;;;;;;;;;;;4.59;60.36;101681.06;5007244;28;19926;-72
2022/03/11 03:50:14;;;;;;;;;;;;;;;4.57;60.33;101673.28;5006709;28;19917;-73
2022/03/11 03:52:40;;;;;;;;;;;;;;;4.56;60.32;101674.16;4997093;28;19929;-73
2022/03/11 03:55:07;;;;;;;;;;;;;;;4.57;59.67;101668.06;5005870;28;19969;-71
2022/03/11 03:57:32;;;;;;;;;;;;;;;4.58;59.94;101671.53;4988791;28;19961;-72
2022/03/11 03:59:57;;;;;;;;;;;;;;;4.58;60.09;101679.34;4998600;28;19984;-72
2022/03/11 04:02:23;;;;;;;;;;;;;;;4.63;58.85;101675.81;5006194;28;19922;-73
2022/03/11 04:04:48;;;;;;;;;;;;;;;4.60;59.75;101675.84;5006487;28;20396;-73
2022/03/11 04:07:13;;;;;;;;;;;;;;;4.60;59.35;101669.78;5003871;28;19921;-74
2022/03/11 04:09:39;;;;;;;;;;;;;;;4.58;59.47;101667.16;5006980;28;19930;-74
2022/03/11 04:12:04;;;;;;;;;;;;;;;4.57;60.00;101665.47;5006784;28;20435;-73
2022/03/11 04:14:29;;;;;;;;;;;;;;;4.54;59.83;101659.41;5003570;28;19936;-72
2022/03/11 04:16:55;;;;;;;;;;;;;;;4.47;60.16;101667.28;5003792;28;20013;-72
2022/03/11 04:19:20;;;;;;;;;;;;;;;4.51;59.75;101656.84;5005051;28;19972;-72
2022/03/11 04:21:46;;;;;;;;;;;;;;;4.46;60.22;101660.34;5003411;28;19929;-73
2022/03/11 04:24:14;;;;;;;;;;;;;;;4.49;59.60;101655.13;5004772;28;19921;-73
2022/03/11 04:26:41;;;;;;;;;;;;;;;4.53;59.88;101652.47;4974383;28;20368;-72
2022/03/11 04:29:07;;;;;;;;;;;;;;;4.47;60.46;101648.19;5002309;28;20020;-72
2022/03/11 04:31:32;;;;;;;;;;;;;;;4.40;60.67;101644.78;5005909;28;20439;-72
2022/03/11 04:33:57;;;;;;;;;;;;;;;4.39;60.48;101637.84;5003700;28;19922;-72
2022/03/11 04:36:23;;;;;;;;;;;;;;;4.37;60.88;101631.81;4990572;28;20013;-72
2022/03/11 04:38:48;;;;;;;;;;;;;;;4.33;60.63;101633.56;4992409;28;20024;-72
2022/03/11 04:41:13;;;;;;;;;;;;;;;4.35;60.48;101623.13;5006239;28;19964;-73
2022/03/11 04:43:39;;;;;;;;;;;;;;;4.36;60.56;101624.88;5010223;28;20352;-71
2022/03/11 04:46:04;;;;;;;;;;;;;;;4.32;60.57;101621.44;5014525;28;19996;-74
2022/03/11 04:48:30;;;;;;;;;;;;;;;4.33;60.35;101620.56;5005275;28;19924;-73
2022/03/11 04:50:56;;;;;;;;;;;;;;;4.34;60.34;101621.41;5006970;28;20022;-72
2022/03/11 04:53:21;;;;;;;;;;;;;;;4.32;60.64;101621.44;5007031;28;19925;-73
2022/03/11 04:55:46;;;;;;;;;;;;;;;4.35;60.13;101625.75;5006742;28;20294;-72
2022/03/11 04:58:12;;;;;;;;;;;;;;;4.36;60.01;101621.38;5006607;28;20470;-72
2022/03/11 05:00:37;;;;;;;;;;;;;;;4.37;60.11;101631.81;5006033;28;19926;-71
2022/03/11 05:03:02;;;;;;;;;;;;;;;4.29;60.68;101626.66;4981795;28;19987;-71
2022/03/11 05:05:29;;;;;;;;;;;;;;;4.25;60.82;101630.13;5004702;28;19917;-72
2022/03/11 05:07:54;;;;;;;;;;;;;;;4.24;60.78;101624.97;5006140;28;19921;-73
2022/03/11 05:10:20;;;;;;;;;;;;;;;4.19;61.17;101619.78;5008918;28;19921;-73
2022/03/11 05:12:45;;;;;;;;;;;;;;;4.17;61.60;101621.53;5009405;28;20684;-74
2022/03/11 05:15:11;;;;;;;;;;;;;;;4.15;61.21;101616.38;4986559;28;19922;-73
2022/03/11 05:17:36;;;;;;;;;;;;;;;4.16;61.56;101618.09;5010215;28;20031;-73
2022/03/11 05:20:03;;;;;;;;;;;;;;;4.12;61.87;101610.31;5009320;28;19930;-72
2022/03/11 05:22:29;;;;;;;;;;;;;;;4.11;62.00;101616.41;5023704;28;19921;-72
2022/03/11 05:24:54;;;;;;;;;;;;;;;4.09;61.80;101612.94;5009218;28;19940;-72
2022/03/11 05:27:19;;;;;;;;;;;;;;;4.05;61.15;101619.91;5008409;28;22734;-72
2022/03/11 05:29:45;;;;;;;;;;;;;;;4.06;61.71;101607.75;5009016;28;19918;-72
2022/03/11 05:32:10;;;;;;;;;;;;;;;4.06;61.87;101612.94;5008896;28;19924;-72
2022/03/11 05:34:39;;;;;;;;;;;;;;;4.05;61.48;101604.31;5008736;28;20009;-71
2022/03/11 05:37:06;;;;;;;;;;;;;;;4.01;61.93;101610.38;5007166;28;20016;-73
2022/03/11 05:39:31;;;;;;;;;;;;;;;4.03;61.25;101600.84;5009990;28;19956;-73
2022/03/11 05:41:57;;;;;;;;;;;;;;;4.03;61.57;101611.25;5008006;28;20360;-71
2022/03/11 05:44:23;;;;;;;;;;;;;;;4.06;60.87;101593.03;5007720;28;20289;-72
2022/03/11 05:46:49;;;;;;;;;;;;;;;4.06;60.61;101594.75;5007748;28;19930;-73
2022/03/11 05:49:14;;;;;;;;;;;;;;;4.07;60.51;101589.56;5007400;28;20522;-73
2022/03/11 05:51:39;;;;;;;;;;;;;;;4.12;59.68;101582.56;5009062;28;19925;-72
2022/03/11 05:54:05;;;;;;;;;;;;;;;4.10;60.51;101588.66;5008639;28;20336;-73
2022/03/11 05:56:31;;;;;;;;;;;;;;;4.12;59.59;101579.13;5011226;28;19936;-72
2022/03/11 05:58:56;;;;;;;;;;;;;;;4.14;59.05;101586.03;5009032;28;20415;-72
2022/03/11 06:01:22;;;;;;;;;;;;;;;4.24;58.43;101573.81;5008328;28;19975;-72
2022/03/11 06:03:47;;;;;;;;;;;;;;;4.23;58.29;101579.00;5009203;28;19936;-72
2022/03/11 06:06:13;;;;;;;;;;;;;;;4.16;58.75;101576.47;5008830;28;19922;-72
2022/03/11 06:08:38;;;;;;;;;;;;;;;4.21;58.36;101575.56;5010556;28;20472;-72
2022/03/11 06:11:04;;;;;;;;;;;;;;;4.24;57.84;101568.63;5007470;28;20020;-72
2022/03/11 06:13:29;;;;;;;;;;;;;;;4.24;57.73;101566.03;5011383;28;19921;-72
2022/03/11 06:15:54;;;;;;;;;;;;;;;4.24;57.94;101567.75;5021741;28;20599;-73
2022/03/11 06:18:19;;;;;;;;;;;;;;;4.27;57.92;101570.31;5008169;28;20013;-71
2022/03/11 06:20:45;;;;;;;;;;;;;;;4.32;57.69;101569.41;5008692;28;19928;-71
2022/03/11 06:23:10;;;;;;;;;;;;;;;4.39;57.48;101574.53;4989148;28;19921;-72
2022/03/11 06:25:36;;;;;;;;;;;;;;;4.29;57.65;101581.59;5009015;28;19918;-71
2022/03/11 06:28:01;;;;;;;;;;;;;;;4.37;57.27;101577.16;5007132;28;19917;-72
2022/03/11 06:30:26;;;;;;;;;;;;;;;4.43;57.11;101573.66;5007661;28;20604;-71
2022/03/11 06:32:52;;;;;;;;;;;;;;;4.44;57.30;101575.38;5007388;28;19929;-72
2022/03/11 06:35:18;;;;;;;;;;;;;;;4.49;57.16;101576.19;5007773;28;19936;-70
2022/03/11 06:37:44;;;;;;;;;;;;;;;4.49;57.03;101573.56;5008347;28;20340;-70
2022/03/11 06:40:10;;;;;;;;;;;;;;;4.54;56.95;101574.41;5007095;28;19925;-71
2022/03/11 06:42:36;;;;;;;;;;;;;;;4.51;57.48;101584.00;5009229;28;20342;-70
2022/03/11 06:45:01;;;;;;;;;;;;;;;4.56;57.35;101587.41;5018609;28;19924;-71
2022/03/11 06:47:26;;;;;;;;;;;;;;;4.52;57.51;101578.75;4989451;28;20451;-72
2022/03/11 06:49:52;;;;;;;;;;;;;;;4.55;57.44;101585.66;5007192;28;19921;-72
2022/03/11 06:52:17;;;;;;;;;;;;;;;4.58;57.07;101572.63;5022316;28;20114;-73
2022/03/11 06:54:42;;;;;;;;;;;;;;;4.61;57.30;101567.41;5008035;28;19940;-73
2022/03/11 06:57:07;;;;;;;;;;;;;;;4.68;57.24;101571.66;5006949;28;19917;-71
2022/03/11 06:59:33;;;;;;;;;;;;;;;4.77;56.32;101563.75;4987817;28;20007;-72
2022/03/11 07:01:58;;;;;;;;;;;;;;;4.84;56.21;101558.50;5006404;28;19929;-73
2022/03/11 07:04:23;;;;;;;;;;;;;;;4.93;56.09;101560.97;5007450;28;19917;-73
2022/03/11 07:06:49;;;;;;;;;;;;;;;5.01;55.22;101553.09;5007116;28;19921;-72
2022/03/11 07:09:14;;;;;;;;;;;;;;;5.06;55.51;101551.28;5007268;28;20377;-73
2022/03/11 07:11:39;;;;;;;;;;;;;;;5.05;55.12;101550.44;4989228;28;19922;-72
2022/03/11 07:14:05;;;;;;;;;;;;;;;5.18;55.04;101545.06;5007060;28;20395;-71
2022/03/11 07:16:30;;;;;;;;;;;;;;;5.18;54.64;101542.47;4996206;28;20020;-72
2022/03/11 07:18:55;;;;;;;;;;;;;;;5.16;55.03;101539.84;4987472;28;20380;-72
2022/03/11 07:21:21;;;;;;;;;;;;;;;5.25;54.66;101534.50;4987619;28;19964;-72
2022/03/11 07:23:51;;;;;;;;;;;;;;;5.46;53.99;101536.84;4997070;28;19929;-72
2022/03/11 07:26:16;;;;;;;;;;;;;;;5.43;53.90;101537.78;4994635;28;19990;-70
2022/03/11 07:28:42;;;;;;;;;;;;;;;5.53;53.70;101534.16;4988939;28;19949;-70
2022/03/11 07:31:07;;;;;;;;;;;;;;;5.57;53.68;101529.75;4992901;28;20659;-71
2022/03/11 07:33:32;;;;;;;;;;;;;;;5.64;53.53;101538.34;5007190;28;19996;-71
2022/03/11 07:35:58;;;;;;;;;;;;;;;5.75;53.36;101522.53;4941037;28;1886374;-71
2022/03/11 07:38:30;;;;;;;;;;;;;;;5.73;53.84;101525.16;5007531;28;19944;-71
2022/03/11 07:40:56;;;;;;;;;;;;;;;5.79;53.12;101522.44;5007951;28;20308;-71
2022/03/11 07:43:21;;;;;;;;;;;;;;;5.82;53.14;101521.56;5005854;28;19921;-71
2022/03/11 07:45:46;;;;;;;;;;;;;;;5.97;52.40;101518.69;5020613;28;19979;-70
2022/03/11 07:48:12;;;;;;;;;;;;;;;6.01;52.20;101524.72;5006788;28;20023;-72
2022/03/11 07:50:37;;;;;;;;;;;;;;;6.12;52.12;101517.59;4989683;28;19926;-72
2022/03/11 07:53:02;;;;;;;;;;;;;;;6.25;52.10;101526.09;5006590;28;20293;-71
2022/03/11 07:55:28;;;;;;;;;;;;;;;6.23;52.01;101517.41;5007526;28;20019;-71
2022/03/11 07:57:54;;;;;;;;;;;;;;;6.30;51.52;101511.19;5007766;28;19921;-72
2022/03/11 08:00:19;;;;;;;;;;;;;;;6.47;51.49;101505.66;4987195;28;20088;-72
2022/03/11 08:02:44;;;;;;;;;;;;;;;6.49;52.01;101509.09;5005648;28;19957;-70
2022/03/11 08:05:14;;;;;;;;;;;;;;;6.61;51.16;101508.03;5004990;28;19975;-69
2022/03/11 08:07:40;;;;;;;;;;;;;;;6.71;51.00;101503.47;5007578;28;20012;-68
2022/03/11 08:10:05;;;;;;;;;;;;;;;6.74;50.84;101502.53;5005657;28;20001;-71
2022/03/11 08:12:30;;;;;;;;;;;;;;;6.72;50.84;101497.34;5009247;28;19957;-70
2022/03/11 08:14:57;;;;;;;;;;;;;;;6.67;50.70;101487.88;5005934;28;19925;-69
2022/03/11 08:17:23;;;;;;;;;;;;;;;6.78;51.26;101493.75;5006351;28;19971;-70
2022/03/11 08:19:49;;;;;;;;;;;;;;;7.01;50.69;101495.03;5005670;28;19989;-70
2022/03/11 08:22:14;;;;;;;;;;;;;;;7.00;50.71;101483.69;5006029;28;20018;-70
2022/03/11 08:24:40;;;;;;;;;;;;;;;7.15;51.08;101493.00;5006672;28;19928;-71
2022/03/11 08:27:05;;;;;;;;;;;;;;;7.21;49.80;101486.75;5004680;28;19925;-71
2022/03/11 08:29:34;;;;;;;;;;;;;;;7.18;50.03;101492.91;5006852;28;20789;-69
2022/03/11 08:31:59;;;;;;;;;;;;;;;7.40;49.30;101488.06;4998821;28;20000;-70
2022/03/11 08:34:25;;;;;;;;;;;;;;;7.43;49.62;101484.50;5004555;28;20652;-70
2022/03/11 08:36:50;;;;;;;;;;;;;;;7.76;48.82;101473.28;5004706;28;19929;-71
2022/03/11 08:39:15;;;;;;;;;;;;;;;8.92;45.90;101463.16;5004846;28;19928;-70
2022/03/11 08:41:41;;;;;;;;;;;;;;;10.57;42.61;101453.41;5006966;28;19926;-70
2022/03/11 08:44:06;;;;;;;;;;;;;;;11.39;40.31;101457.28;5004472;28;20670;-72
2022/03/11 08:46:32;;;;;;;;;;;;;;;11.81;39.15;101456.41;5006653;28;20016;-71
2022/03/11 08:48:57;;;;;;;;;;;;;;;11.94;39.25;101455.91;5004913;28;19922;-71
2022/03/11 08:51:23;;;;;;;;;;;;;;;13.19;36.62;101454.72;5006156;28;19925;-71
2022/03/11 08:53:48;;;;;;;;;;;;;;;13.97;35.63;101455.31;5007319;28;19928;-70
2022/03/11 08:56:15;;;;;;;;;;;;;;;12.78;36.30;101450.47;5003931;28;19925;-70
2022/03/11 08:58:41;;;;;;;;;;;;;;;13.52;36.14;101441.69;5006728;28;19922;-71
2022/03/11 09:01:06;;;;;;;;;;;;;;;15.07;33.00;101441.53;5005422;28;19926;-71
2022/03/11 09:03:31;;;;;;;;;;;;;;;15.77;32.16;101441.06;5006651;28;20612;-69
2022/03/11 09:05:58;;;;;;;;;;;;;;;15.16;32.76;101442.81;5005859;28;19928;-71
2022/03/11 09:08:23;;;;;;;;;;;;;;;13.61;35.66;101446.50;5006569;28;20489;-70
2022/03/11 09:10:49;;;;;;;;;;;;;;;14.26;34.67;101444.16;5006446;28;20012;-72
2022/03/11 09:13:14;;;;;;;;;;;;;;;14.77;34.78;101441.47;5005169;28;19957;-70
2022/03/11 09:15:39;;;;;;;;;;;;;;;15.38;32.41;101417.78;5007285;28;19921;-70
2022/03/11 09:18:05;;;;;;;;;;;;;;;14.18;34.83;101428.72;5005239;28;19991;-70
2022/03/11 09:20:30;;;;;;;;;;;;;;;14.98;33.15;101421.75;5006301;28;20312;-71
2022/03/11 09:22:55;;;;;;;;;;;;;;;15.03;33.19;101421.50;5006693;28;19917;-71
2022/03/11 09:25:21;;;;;;;;;;;;;;;16.30;31.05;101414.09;5006197;28;19980;-71
2022/03/11 09:27:46;;;;;;;;;;;;;;;16.77;31.04;101414.69;5006305;28;19922;-71
2022/03/11 09:30:12;;;;;;;;;;;;;;;15.30;32.39;101419.06;5005558;28;19925;-71
2022/03/11 09:32:37;;;;;;;;;;;;;;;17.25;30.36;101416.94;5008559;28;19922;-71
2022/03/11 09:35:04;;;;;;;;;;;;;;;17.58;29.31;101406.84;5005364;28;19925;-72
2022/03/11 09:37:29;;;;;;;;;;;;;;;16.81;30.27;101420.69;5008673;28;19971;-70
2022/03/11 09:39:54;;;;;;;;;;;;;;;16.77;30.57;101405.88;5007191;28;19925;-72
2022/03/11 09:42:20;;;;;;;;;;;;;;;16.06;31.90;101411.16;5005825;28;19925;-71
2022/03/11 09:44:49;;;;;;;;;;;;;;;16.25;31.68;101407.34;5006161;28;19929;-71
2022/03/11 09:47:15;;;;;;;;;;;;;;;16.65;31.02;101396.88;4988159;28;19925;-71
2022/03/11 09:49:40;;;;;;;;;;;;;;;17.74;29.74;101388.91;5008126;28;19922;-72
2022/03/11 09:52:06;;;;;;;;;;;;;;;16.94;30.63;101394.22;4991040;28;20290;-72
2022/03/11 09:54:31;;;;;;;;;;;;;;;15.12;33.40;101409.53;5011020;28;19923;-72
2022/03/11 09:56:57;;;;;;;;;;;;;;;14.85;34.23;101402.22;5009702;28;19928;-72
2022/03/11 09:59:23;;;;;;;;;;;;;;;16.29;32.45;101391.16;5009404;28;20275;-71
2022/03/11 10:01:49;;;;;;;;;;;;;;;16.61;30.93;101384.78;5010631;28;20056;-71
2022/03/11 10:04:14;;;;;;;;;;;;;;;15.39;33.21;101390.34;5008871;28;20551;-71
2022/03/11 10:06:44;;;;;;;;;;;;;;;16.02;32.49;101383.97;5010173;28;20748;-72
2022/03/11 10:09:25;;;;;;;;;;;;;;;17.10;31.37;101372.81;5009080;28;19933;-71
2022/03/11 10:11:52;;;;;;;;;;;;;;;18.10;29.51;101359.88;5010348;28;20613;-71
2022/03/11 10:14:26;;;;;;;;;;;;;;;16.80;32.11;101372.03;5008225;28;20372;-70
2022/03/11 10:16:51;;;;;;;;;;;;;;;17.65;29.77;101362.94;5010580;28;20012;-70
2022/03/11 10:19:19;;;;;;;;;;;;;;;18.73;28.80;101353.66;5008316;28;20020;-70
2022/03/11 10:21:46;;;;;;;;;;;;;;;17.52;30.48;101370.06;5008613;28;19925;-70
2022/03/11 10:24:13;;;;;;;;;;;;;;;19.14;27.96;101360.41;5006070;28;19941;-70
2022/03/11 10:26:40;;;;;;;;;;;;;;;19.52;27.86;101353.16;5010506;28;19924;-71
2022/03/11 10:29:06;;;;;;;;;;;;;;;19.27;27.94;101358.53;5007039;28;20372;-70
2022/03/11 10:31:33;;;;;;;;;;;;;;;19.05;28.29;101356.63;5010495;28;19949;-70
2022/03/11 10:34:14;;;;;;;;;;;;;;;18.14;29.90;101352.53;5008255;28;19921;-71
2022/03/11 10:36:48;;;;;;;;;;;;;;;18.27;29.68;101334.75;4987097;28;19936;-71
2022/03/11 10:39:15;;;;;;;;;;;;;;;17.44;31.26;101341.34;5006408;28;20304;-72
2022/03/11 10:41:40;;;;;;;;;;;;;;;18.66;29.39;101330.16;5009618;28;20374;-70
2022/03/11 10:44:09;;;;;;;;;;;;;;;17.17;31.38;101328.97;5006977;28;19969;-70
2022/03/11 10:46:34;;;;;;;;;;;;;;;18.25;30.07;101323.38;5008073;28;19945;-70
2022/03/11 10:49:00;;;;;;;;;;;;;;;17.77;30.83;101322.22;5006800;28;20458;-70
2022/03/11 10:51:27;;;;;;;;;;;;;;;16.81;32.81;101322.47;5007393;28;19971;-70
2022/03/11 10:53:55;;;;;;;;;;;;;;;17.34;32.57;101321.69;5008360;28;19928;-70
2022/03/11 10:56:29;;;;;;;;;;;;;;;17.36;32.29;101320.63;5006280;28;19925;-71
2022/03/11 10:58:55;;;;;;;;;;;;;;;16.72;33.18;101326.59;5006833;28;19918;-70
2022/03/11 11:01:36;;;;;;;;;;;;;;;16.30;33.86;101326.56;5005661;28;19930;-70
2022/03/11 11:04:02;;;;;;;;;;;;;;;15.91;34.74;101336.94;4985100;28;20392;-70
2022/03/11 11:06:28;;;;;;;;;;;;;;;14.90;37.02;101346.41;5007979;28;19921;-70
2022/03/11 11:08:54;;;;;;;;;;;;;;;13.87;39.51;101343.13;5007748;28;20626;-70
2022/03/11 11:11:19;;;;;;;;;;;;;;;13.29;41.17;101345.16;5006920;28;19933;-70
2022/03/11 11:13:44;;;;;;;;;;;;;;;13.42;41.33;101338.38;5008255;28;20300;-69
2022/03/11 11:16:10;;;;;;;;;;;;;;;13.27;41.83;101339.97;5007384;28;20304;-70
2022/03/11 11:18:35;;;;;;;;;;;;;;;13.47;41.39;101331.97;5004190;28;19962;-71
2022/03/11 11:21:05;;;;;;;;;;;;;;;13.62;41.34;101325.94;4988371;28;20376;-71
2022/03/11 11:23:31;;;;;;;;;;;;;;;12.78;43.60;101318.63;5010898;28;19997;-70
2022/03/11 11:25:56;;;;;;;;;;;;;;;12.25;44.70;101321.13;5008342;28;19968;-71
2022/03/11 11:28:22;;;;;;;;;;;;;;;12.27;44.94;101316.63;5006666;28;20014;-71
2022/03/11 11:30:52;;;;;;;;;;;;;;;12.34;44.59;101311.94;5009517;28;20459;-70
2022/03/11 11:33:18;;;;;;;;;;;;;;;12.40;45.14;101308.16;5006624;28;19929;-71
2022/03/11 11:35:43;;;;;;;;;;;;;;;12.59;44.97;101308.13;5008941;28;19941;-71
2022/03/11 11:38:24;;;;;;;;;;;;;;;12.38;44.75;101302.94;5003950;28;20399;-70
2022/03/11 11:40:49;;;;;;;;;;;;;;;12.30;45.59;101299.81;5003261;28;19929;-71
2022/03/11 11:43:14;;;;;;;;;;;;;;;12.69;45.17;101296.19;5006150;28;20481;-71
2022/03/11 11:45:40;;;;;;;;;;;;;;;12.98;44.39;101293.94;5007609;28;20456;-71
2022/03/11 11:48:05;;;;;;;;;;;;;;;13.13;43.83;101290.50;5005896;28;20380;-69
2022/03/11 11:50:42;;;;;;;;;;;;;;;13.14;43.50;101289.59;5006794;28;19971;-71
2022/03/11 11:53:07;;;;;;;;;;;;;;;12.84;43.62;101290.19;5003142;28;19928;-70
2022/03/11 11:55:39;;;;;;;;;;;;;;;12.61;43.67;101288.69;5009006;28;19917;-70
2022/03/11 11:58:21;;;;;;;;;;;;;;;12.80;44.03;101283.34;5005976;28;19917;-70
2022/03/11 12:00:53;;;;;;;;;;;;;;;12.89;44.15;101270.66;5008157;28;20384;-70
2022/03/11 12:03:19;;;;;;;;;;;;;;;12.94;44.19;101273.91;5006091;28;20837;-71
2022/03/11 12:05:44;;;;;;;;;;;;;;;13.05;44.09;101268.94;5008355;28;19996;-71
2022/03/11 12:08:29;;;;;;;;;;;;;;;13.20;44.19;101261.19;5006366;28;19948;-70
2022/03/11 12:10:54;;;;;;;;;;;;;;;13.08;44.22;101262.66;4988734;28;19925;-70
2022/03/11 12:13:35;;;;;;;;;;;;;;;12.95;44.81;101260.63;5007288;28;19929;-72
2022/03/11 12:16:01;;;;;;;;;;;;;;;12.91;44.95;101253.81;5008423;28;19948;-70
2022/03/11 12:18:35;;;;;;;;;;;;;;;12.80;44.49;101249.06;5008690;28;19952;-70
2022/03/11 12:21:00;;;;;;;;;;;;;;;12.94;44.87;101236.97;5007429;28;19925;-70
2022/03/11 12:23:30;;;;;;;;;;;;;;;12.78;45.75;101242.16;5009040;28;19929;-70
2022/03/11 12:25:58;;;;;;;;;;;;;;;12.61;45.93;101227.19;5009875;28;19918;-71
2022/03/11 12:28:25;;;;;;;;;;;;;;;12.64;46.44;101227.88;5007428;28;19918;-70
2022/03/11 12:30:50;;;;;;;;;;;;;;;12.86;45.88;101218.91;5008871;28;19979;-70
2022/03/11 12:33:17;;;;;;;;;;;;;;;13.01;45.67;101217.25;5006732;28;19918;-69
2022/03/11 12:35:43;;;;;;;;;;;;;;;12.98;45.15;101217.44;5010273;28;19937;-70
2022/03/11 12:38:13;;;;;;;;;;;;;;;13.05;45.60;101205.63;5007108;28;19925;-71